Time;durP1;ratioP1;P1;durP2;ratioP2;P2;SDS_P1;SDS_P2;PMS_P1;PMS_P2;Temp;Humidity;BMP_temperature;BMP_pressure;BME280_temperature;BME280_humidity;BME280_pressure;Samples;Min_cycle;Max_cycle;Signal;HPM_P1;HPM_P2
2023/09/08 00:01:28;;;;;;;13.70;6.17;;;16.20;99.90;;;;;;5012534;28;20206;-83
2023/09/08 00:03:54;;;;;;;14.17;7.73;;;16.10;99.90;;;;;;5012743;28;20292;-83
2023/09/08 00:06:19;;;;;;;7.67;6.00;;;16.10;99.90;;;;;;5015493;28;20189;-78
2023/09/08 00:08:45;;;;;;;7.57;5.53;;;16.20;99.90;;;;;;5025773;28;20196;-82
2023/09/08 00:11:10;;;;;;;8.10;5.70;;;16.10;99.90;;;;;;5003884;28;21353;-82
2023/09/08 00:13:36;;;;;;;6.27;5.10;;;16.10;99.90;;;;;;5006225;28;20194;-84
2023/09/08 00:16:01;;;;;;;6.90;6.17;;;16.10;99.90;;;;;;5006080;28;20279;-81
2023/09/08 00:18:27;;;;;;;8.50;6.20;;;16.10;99.90;;;;;;5001665;28;20609;-82
2023/09/08 00:20:52;;;;;;;7.97;5.50;;;16.10;99.90;;;;;;5005985;28;20191;-85
2023/09/08 00:23:18;;;;;;;7.90;5.33;;;16.10;99.90;;;;;;5014593;28;20662;-78
2023/09/08 00:25:43;;;;;;;8.80;6.00;;;16.20;99.90;;;;;;5017593;28;20199;-81
2023/09/08 00:28:09;;;;;;;12.20;6.40;;;16.20;99.90;;;;;;5014629;28;20201;-84
2023/09/08 00:30:34;;;;;;;12.30;7.17;;;16.40;99.90;;;;;;5013318;28;20193;-83
2023/09/08 00:33:00;;;;;;;13.90;6.70;;;16.50;99.90;;;;;;5012259;28;20547;-81
2023/09/08 00:35:26;;;;;;;12.80;7.37;;;16.60;99.90;;;;;;5022766;28;20281;-84
2023/09/08 00:37:51;;;;;;;12.00;7.27;;;16.40;99.90;;;;;;5014801;28;20186;-84
2023/09/08 00:40:17;;;;;;;11.20;7.50;;;16.30;99.90;;;;;;5015736;28;20186;-78
2023/09/08 00:42:42;;;;;;;13.77;8.60;;;16.30;99.90;;;;;;5005858;28;20242;-79
2023/09/08 00:45:08;;;;;;;16.80;7.40;;;16.30;99.90;;;;;;5003906;28;20224;-79
2023/09/08 00:47:35;;;;;;;9.53;7.23;;;16.10;99.90;;;;;;4998783;28;20253;-81
2023/09/08 00:50:03;;;;;;;11.73;7.10;;;16.10;99.90;;;;;;5003483;28;20534;-82
2023/09/08 00:52:32;;;;;;;11.93;7.60;;;17.20;99.90;;;;;;5001671;28;20495;-81
2023/09/08 00:54:58;;;;;;;14.57;8.13;;;16.00;99.90;;;;;;5009060;28;20673;-84
2023/09/08 00:57:24;;;;;;;9.60;7.13;;;16.00;99.90;;;;;;5000744;28;20444;-85
2023/09/08 00:59:50;;;;;;;10.83;6.90;;;16.00;99.90;;;;;;5009208;28;20479;-82
2023/09/08 01:02:15;;;;;;;9.70;7.70;;;15.90;99.90;;;;;;5010641;28;20469;-81
2023/09/08 01:04:41;;;;;;;11.33;7.10;;;17.10;99.90;;;;;;5021933;28;20211;-82
2023/09/08 01:07:08;;;;;;;14.27;8.80;;;15.90;99.90;;;;;;5010545;28;20649;-82
2023/09/08 01:09:34;;;;;;;10.30;7.57;;;15.80;99.90;;;;;;5003528;28;20438;-82
2023/09/08 01:12:04;;;;;;;11.13;7.53;;;15.80;99.90;;;;;;5027231;28;20440;-77
2023/09/08 01:14:30;;;;;;;11.63;7.90;;;15.70;99.90;;;;;;5012409;28;20477;-79
2023/09/08 01:16:56;;;;;;;11.03;7.57;;;15.60;99.90;;;;;;5014215;28;20445;-78
2023/09/08 01:19:22;;;;;;;8.40;7.10;;;15.60;99.90;;;;;;5009690;28;21493;-80
2023/09/08 01:22:33;;;;;;;8.67;6.97;;;15.50;99.90;;;;;;4999502;28;20190;-84
2023/09/08 01:25:19;;;;;;;11.63;6.80;;;15.50;99.90;;;;;;5002690;28;20475;-82
2023/09/08 01:28:05;;;;;;;11.00;6.67;;;15.30;99.90;;;;;;5003271;28;20491;-80
2023/09/08 01:30:33;;;;;;;12.50;7.03;;;15.30;99.90;;;;;;5015659;28;20468;-80
2023/09/08 01:32:59;;;;;;;8.77;7.00;;;15.30;99.90;;;;;;5014973;28;20464;-81
2023/09/08 01:35:25;;;;;;;9.87;8.47;;;15.20;99.90;;;;;;5012011;28;20457;-78
2023/09/08 01:37:50;;;;;;;9.73;8.40;;;15.20;99.90;;;;;;5003337;28;20452;-80
2023/09/08 01:40:18;;;;;;;12.47;8.10;;;15.10;99.90;;;;;;5007744;28;20449;-82
2023/09/08 01:42:45;;;;;;;12.90;8.50;;;15.00;99.90;;;;;;5005663;28;20233;-84
2023/09/08 01:45:10;;;;;;;13.50;8.90;;;14.80;99.90;;;;;;5026734;28;20464;-81
2023/09/08 01:47:37;;;;;;;10.37;7.77;;;14.80;99.90;;;;;;5011835;28;20445;-84
2023/09/08 01:50:02;;;;;;;11.07;8.00;;;14.80;99.90;;;;;;5009865;28;20186;-83
2023/09/08 01:52:28;;;;;;;8.43;7.00;;;14.80;99.90;;;;;;5006179;28;20445;-80
2023/09/08 01:54:53;;;;;;;8.70;7.60;;;15.10;99.90;;;;;;5002360;28;20761;-84
2023/09/08 01:57:19;;;;;;;11.03;7.83;;;14.70;99.90;;;;;;4999724;28;20197;-83
2023/09/08 01:59:45;;;;;;;14.80;8.50;;;15.70;99.90;;;;;;5006279;28;20224;-84
2023/09/08 02:02:11;;;;;;;12.73;8.30;;;14.50;99.90;;;;;;5002562;28;20194;-84
2023/09/08 02:04:37;;;;;;;12.57;8.73;;;14.60;99.90;;;;;;5023033;28;20198;-80
2023/09/08 02:07:04;;;;;;;11.77;8.50;;;14.60;99.90;;;;;;5006865;28;20449;-80
2023/09/08 02:09:35;;;;;;;10.23;8.80;;;14.60;99.90;;;;;;5005444;28;20182;-83
2023/09/08 02:12:01;;;;;;;11.10;8.53;;;14.50;99.90;;;;;;5006835;28;20433;-84
2023/09/08 02:14:27;;;;;;;13.70;8.43;;;14.50;99.90;;;;;;5017859;28;20449;-82
2023/09/08 02:16:56;;;;;;;12.00;8.70;;;14.60;99.90;;;;;;5010011;28;20446;-80
2023/09/08 02:19:22;;;;;;;12.10;8.40;;;14.60;99.90;;;;;;5014171;28;20433;-82
2023/09/08 02:21:47;;;;;;;11.00;8.60;;;14.60;99.90;;;;;;5010212;28;20448;-84
2023/09/08 02:24:13;;;;;;;10.30;7.00;;;16.10;99.90;;;;;;5009856;28;20480;-79
2023/09/08 02:26:39;;;;;;;10.97;8.13;;;14.60;99.90;;;;;;5006151;28;20186;-83
2023/09/08 02:29:05;;;;;;;13.23;8.73;;;14.70;99.90;;;;;;4995825;28;20737;-80
2023/09/08 02:31:30;;;;;;;12.80;8.60;;;14.70;99.90;;;;;;5009809;28;20194;-79
2023/09/08 02:33:56;;;;;;;11.70;7.67;;;14.70;99.90;;;;;;5033791;28;20485;-82
2023/09/08 02:36:25;;;;;;;12.73;8.50;;;14.70;99.90;;;;;;5034137;28;20561;-80
2023/09/08 02:38:52;;;;;;;15.07;7.70;;;14.70;99.90;;;;;;5010952;28;21004;-79
2023/09/08 02:41:17;;;;;;;9.93;7.50;;;14.60;99.90;;;;;;4997433;28;20447;-82
2023/09/08 02:43:43;;;;;;;11.93;7.70;;;14.60;99.90;;;;;;5006894;28;20477;-86
2023/09/08 02:46:09;;;;;;;10.83;7.87;;;14.50;99.90;;;;;;4999764;28;20624;-84
2023/09/08 02:48:34;;;;;;;9.33;8.20;;;14.50;99.90;;;;;;5002515;28;20186;-78
2023/09/08 02:51:00;;;;;;;10.67;8.13;;;14.50;99.90;;;;;;5009002;28;20509;-80
2023/09/08 02:53:28;;;;;;;14.07;8.20;;;14.40;99.90;;;;;;5012886;28;20232;-80
2023/09/08 02:55:54;;;;;;;14.60;8.00;;;14.40;99.90;;;;;;5002238;28;20293;-81
2023/09/08 02:58:20;;;;;;;16.63;7.63;;;14.40;99.90;;;;;;5002211;28;20469;-77
2023/09/08 03:00:46;;;;;;;12.33;9.20;;;14.40;99.90;;;;;;5005299;28;20535;-85
2023/09/08 03:03:11;;;;;;;16.70;8.07;;;15.80;99.90;;;;;;5011881;28;20213;-80
2023/09/08 03:05:37;;;;;;;12.93;8.17;;;14.40;99.90;;;;;;5008073;28;20624;-79
2023/09/08 03:08:03;;;;;;;11.87;7.87;;;14.50;99.90;;;;;;5004271;28;20235;-81
2023/09/08 03:10:28;;;;;;;12.43;8.00;;;14.50;99.90;;;;;;4997446;28;20199;-80
2023/09/08 03:12:54;;;;;;;16.77;8.80;;;14.60;99.90;;;;;;5000103;28;20682;-83
2023/09/08 03:15:20;;;;;;;10.77;8.10;;;14.50;99.90;;;;;;5000998;28;20210;-81
2023/09/08 03:17:46;;;;;;;13.43;8.20;;;14.50;99.90;;;;;;4997096;28;20457;-82
2023/09/08 03:20:13;;;;;;;13.93;8.60;;;14.50;99.90;;;;;;5002912;28;20453;-84
2023/09/08 03:22:38;;;;;;;11.67;8.90;;;14.60;99.90;;;;;;5002864;28;20234;-77
2023/09/08 03:25:04;;;;;;;15.53;10.37;;;14.50;99.90;;;;;;5011621;28;20487;-81
2023/09/08 03:27:30;;;;;;;11.57;8.30;;;14.50;99.90;;;;;;5004251;28;20273;-80
2023/09/08 03:29:55;;;;;;;12.00;8.90;;;14.40;99.90;;;;;;5007669;28;20539;-79
2023/09/08 03:32:21;;;;;;;12.27;9.40;;;14.40;99.90;;;;;;4998392;28;20204;-81
2023/09/08 03:34:47;;;;;;;11.60;9.00;;;14.40;99.90;;;;;;5005358;28;20293;-84
2023/09/08 03:37:12;;;;;;;10.90;8.40;;;14.20;99.90;;;;;;5002956;28;20183;-86
2023/09/08 03:39:38;;;;;;;14.97;9.30;;;14.20;99.90;;;;;;5005401;28;20558;-79
2023/09/08 03:42:03;;;;;;;12.83;9.40;;;14.10;99.90;;;;;;5015778;28;20287;-81
2023/09/08 03:44:29;;;;;;;9.83;7.33;;;14.00;99.90;;;;;;5016243;28;20202;-84
2023/09/08 03:46:54;;;;;;;10.97;7.93;;;14.00;99.90;;;;;;5010102;28;20225;-83
2023/09/08 03:49:20;;;;;;;12.63;8.80;;;13.90;99.90;;;;;;5003477;28;20190;-83
2023/09/08 03:51:45;;;;;;;12.23;8.20;;;13.90;99.90;;;;;;5015141;28;20187;-79
2023/09/08 03:54:11;;;;;;;15.87;7.53;;;14.00;99.90;;;;;;5014692;28;20214;-81
2023/09/08 03:56:36;;;;;;;12.53;9.23;;;13.90;99.90;;;;;;5016912;28;20191;-82
2023/09/08 03:59:02;;;;;;;9.13;7.40;;;14.40;99.90;;;;;;5009596;28;20190;-80
2023/09/08 04:01:27;;;;;;;18.00;7.10;;;13.80;99.90;;;;;;5010583;28;20585;-83
2023/09/08 04:03:53;;;;;;;9.83;7.50;;;13.70;99.90;;;;;;5012844;28;20202;-85
2023/09/08 04:06:18;;;;;;;9.43;7.50;;;13.80;99.90;;;;;;5011267;28;20190;-81
2023/09/08 04:08:44;;;;;;;14.60;8.13;;;13.90;99.90;;;;;;5004839;28;20190;-76
2023/09/08 04:11:09;;;;;;;12.23;8.93;;;13.80;99.90;;;;;;5003257;28;20277;-78
2023/09/08 04:13:35;;;;;;;12.90;8.93;;;13.90;99.90;;;;;;5005444;28;20190;-80
2023/09/08 04:16:00;;;;;;;11.40;8.57;;;13.90;99.90;;;;;;5012162;28;20210;-78
2023/09/08 04:18:27;;;;;;;13.40;8.70;;;13.90;99.90;;;;;;5006551;28;20186;-85
2023/09/08 04:20:52;;;;;;;12.57;9.60;;;14.00;99.90;;;;;;5004375;28;20282;-81
2023/09/08 04:23:18;;;;;;;10.80;8.43;;;14.00;99.90;;;;;;5014161;28;20512;-82
2023/09/08 04:25:43;;;;;;;10.30;8.40;;;14.20;99.90;;;;;;5006323;28;20210;-82
2023/09/08 04:28:09;;;;;;;11.43;8.03;;;14.10;99.90;;;;;;5008038;28;20194;-80
2023/09/08 04:30:34;;;;;;;10.33;7.33;;;15.60;99.90;;;;;;5019373;28;20209;-82
2023/09/08 04:33:00;;;;;;;15.13;10.57;;;14.00;99.90;;;;;;5008423;28;20295;-81
2023/09/08 04:35:26;;;;;;;10.77;8.27;;;14.00;99.90;;;;;;5006894;28;20260;-83
2023/09/08 04:37:51;;;;;;;14.17;9.63;;;14.30;99.90;;;;;;5014252;28;20194;-83
2023/09/08 04:40:17;;;;;;;17.20;9.40;;;14.40;99.90;;;;;;5000603;28;20194;-81
2023/09/08 04:42:42;;;;;;;10.00;8.67;;;14.40;99.90;;;;;;5010793;28;20253;-82
2023/09/08 04:45:08;;;;;;;10.87;7.20;;;14.60;99.90;;;;;;4996229;28;20682;-80
2023/09/08 04:47:34;;;;;;;15.73;8.10;;;14.40;99.90;;;;;;5004659;28;20619;-84
2023/09/08 04:49:59;;;;;;;13.83;8.70;;;14.30;99.90;;;;;;5016573;28;20441;-80
2023/09/08 04:52:25;;;;;;;13.70;8.63;;;14.20;99.90;;;;;;5008920;28;20194;-86
2023/09/08 04:54:50;;;;;;;11.83;8.43;;;14.30;99.90;;;;;;4999909;28;20206;-81
2023/09/08 04:57:16;;;;;;;13.40;9.90;;;14.30;99.90;;;;;;5002140;28;20190;-83
2023/09/08 04:59:41;;;;;;;10.70;8.23;;;14.30;99.90;;;;;;4998463;28;20198;-83
2023/09/08 05:02:07;;;;;;;10.83;8.53;;;14.20;99.90;;;;;;5004605;28;20191;-81
2023/09/08 05:04:32;;;;;;;12.40;9.77;;;14.40;99.90;;;;;;5003778;28;20202;-77
2023/09/08 05:06:58;;;;;;;12.50;9.80;;;14.60;99.90;;;;;;5000592;28;20197;-82
2023/09/08 05:09:23;;;;;;;11.67;9.17;;;14.70;99.90;;;;;;4999752;28;20183;-82
2023/09/08 05:11:49;;;;;;;11.70;8.27;;;14.70;99.90;;;;;;5007887;28;20186;-79
2023/09/08 05:14:14;;;;;;;17.37;9.70;;;14.80;99.90;;;;;;5019894;28;20301;-82
2023/09/08 05:16:45;;;;;;;14.80;9.10;;;15.30;99.90;;;;;;5013760;28;20183;-83
2023/09/08 05:19:15;;;;;;;13.37;8.80;;;16.20;99.90;;;;;;5003346;28;22931;-83
2023/09/08 05:21:41;;;;;;;11.47;8.60;;;17.60;99.90;;;;;;4997315;28;20510;-81
2023/09/08 05:24:07;;;;;;;15.03;8.60;;;18.80;99.90;;;;;;5001076;28;20468;-79
2023/09/08 05:26:36;;;;;;;12.17;7.60;;;20.00;99.90;;;;;;5006900;28;20437;-82
2023/09/08 05:29:01;;;;;;;9.33;7.13;;;21.30;99.90;;;;;;5010430;28;20432;-83
2023/09/08 05:31:27;;;;;;;10.00;7.80;;;22.30;99.90;;;;;;5008794;28;20442;-82
2023/09/08 05:33:52;;;;;;;15.30;6.83;;;23.10;99.90;;;;;;5007291;28;20667;-80
2023/09/08 05:36:18;;;;;;;10.10;7.13;;;24.10;99.90;;;;;;5017018;28;20254;-82
2023/09/08 05:38:43;;;;;;;8.97;7.30;;;25.20;99.90;;;;;;5007319;28;20187;-78
2023/09/08 05:41:09;;;;;;;9.40;7.67;;;26.60;99.90;;;;;;5008223;28;20190;-80
2023/09/08 05:43:35;;;;;;;11.60;6.93;;;27.60;99.90;;;;;;5013563;28;20902;-81
2023/09/08 05:46:00;;;;;;;14.70;7.10;;;28.60;99.90;;;;;;5011581;28;20197;-81
2023/09/08 05:48:26;;;;;;;10.23;7.10;;;29.50;99.90;;;;;;5001576;28;20184;-85
2023/09/08 05:50:51;;;;;;;10.40;7.37;;;28.90;94.20;;;;;;5008893;28;20185;-84
2023/09/08 05:53:17;;;;;;;9.63;7.87;;;29.10;95.20;;;;;;5006747;28;20209;-79
2023/09/08 05:55:42;;;;;;;10.97;8.30;;;28.40;93.90;;;;;;5024161;28;20198;-78
2023/09/08 05:58:08;;;;;;;14.30;7.60;;;28.00;95.20;;;;;;5020613;28;20311;-82
2023/09/08 06:00:33;;;;;;;12.53;7.47;;;28.40;93.90;;;;;;5015038;28;20194;-79
2023/09/08 06:02:59;;;;;;;11.33;7.60;;;29.80;93.40;;;;;;5013047;28;20204;-82
2023/09/08 06:05:24;;;;;;;12.33;8.40;;;30.50;89.90;;;;;;5010386;28;20238;-77
2023/09/08 06:07:50;;;;;;;9.13;7.63;;;29.40;90.20;;;;;;5010927;28;20460;-82
2023/09/08 06:10:16;;;;;;;8.97;7.83;;;29.60;90.00;;;;;;5007441;28;20249;-77
2023/09/08 06:12:43;;;;;;;13.23;8.30;;;30.00;90.30;;;;;;5006441;28;20272;-80
2023/09/08 06:15:08;;;;;;;10.67;8.10;;;29.90;86.90;;;;;;5007987;28;20212;-80
2023/09/08 06:17:34;;;;;;;9.30;8.40;;;30.30;89.80;;;;;;5005484;28;20438;-79
2023/09/08 06:19:59;;;;;;;9.87;7.40;;;30.30;87.20;;;;;;5001022;28;20192;-80
2023/09/08 06:22:25;;;;;;;10.97;8.53;;;31.20;86.40;;;;;;5012584;28;20546;-79
2023/09/08 06:24:51;;;;;;;14.70;9.37;;;31.70;83.60;;;;;;5006944;28;20209;-81
2023/09/08 06:27:16;;;;;;;9.20;7.40;;;31.80;80.80;;;;;;5003249;28;20182;-80
2023/09/08 06:29:43;;;;;;;9.43;7.90;;;30.90;80.70;;;;;;5004151;28;20190;-83
2023/09/08 06:32:09;;;;;;;12.00;8.13;;;31.40;82.10;;;;;;5008041;28;20196;-76
2023/09/08 06:34:35;;;;;;;10.47;7.30;;;31.40;78.60;;;;;;5012459;28;20466;-84
2023/09/08 06:37:01;;;;;;;9.70;8.50;;;32.20;78.10;;;;;;4998437;28;20543;-78
2023/09/08 06:39:27;;;;;;;12.83;8.37;;;31.80;75.80;;;;;;5004775;28;20186;-87
2023/09/08 06:41:53;;;;;;;10.30;7.90;;;32.00;79.20;;;;;;5010315;28;20456;-81
2023/09/08 06:44:20;;;;;;;10.00;8.40;;;32.70;76.50;;;;;;5010787;28;20321;-85
2023/09/08 06:46:45;;;;;;;10.67;8.33;;;32.60;74.40;;;;;;5000883;28;20189;-80
2023/09/08 06:49:11;;;;;;;11.80;9.13;;;30.70;76.70;;;;;;5003831;28;20524;-81
2023/09/08 06:51:38;;;;;;;8.90;8.10;;;30.30;82.00;;;;;;5005785;28;20190;-81
2023/09/08 06:54:04;;;;;;;9.20;8.30;;;29.80;85.00;;;;;;5001489;28;20275;-83
2023/09/08 06:56:29;;;;;;;14.83;9.83;;;29.60;87.10;;;;;;5004162;28;20439;-81
2023/09/08 06:58:57;;;;;;;9.37;7.40;;;29.90;89.30;;;;;;5008121;28;20188;-83
2023/09/08 07:01:25;;;;;;;11.10;9.00;;;31.10;84.60;;;;;;5006418;28;20181;-80
2023/09/08 07:03:50;;;;;;;10.60;8.80;;;30.80;83.40;;;;;;5007732;28;20476;-81
2023/09/08 07:06:16;;;;;;;13.00;8.40;;;32.30;83.30;;;;;;5019825;28;20445;-81
2023/09/08 07:08:41;;;;;;;15.23;9.53;;;32.20;83.20;;;;;;5015880;28;20822;-84
2023/09/08 07:11:07;;;;;;;11.13;8.63;;;32.70;81.20;;;;;;5009047;28;20202;-84
2023/09/08 07:13:33;;;;;;;13.07;9.40;;;32.40;80.20;;;;;;5007267;28;20194;-81
2023/09/08 07:15:58;;;;;;;14.07;9.83;;;31.60;80.50;;;;;;5011937;28;20208;-83
2023/09/08 07:18:24;;;;;;;12.33;9.00;;;31.90;82.40;;;;;;5010344;28;20199;-85
2023/09/08 07:20:50;;;;;;;15.23;10.03;;;31.90;82.10;;;;;;5006935;28;20193;-81
2023/09/08 07:23:19;;;;;;;15.03;10.23;;;31.40;81.30;;;;;;5004384;28;20208;-86
2023/09/08 07:25:48;;;;;;;9.80;8.67;;;32.20;85.00;;;;;;5004295;28;20218;-84
2023/09/08 07:28:15;;;;;;;13.33;10.03;;;31.60;80.20;;;;;;5002938;28;20453;-88
2023/09/08 07:30:40;;;;;;;9.33;7.90;;;31.20;85.30;;;;;;5025521;28;20464;-83
2023/09/08 07:33:06;;;;;;;11.20;8.43;;;31.50;86.90;;;;;;5005009;28;20457;-80
2023/09/08 07:35:31;;;;;;;9.77;8.77;;;31.80;85.80;;;;;;5009060;28;20305;-86
2023/09/08 07:37:57;;;;;;;14.70;8.17;;;32.40;83.50;;;;;;5008210;28;20196;-82
2023/09/08 07:40:23;;;;;;;9.20;8.23;;;32.40;81.40;;;;;;5007194;28;20197;-85
2023/09/08 07:42:49;;;;;;;11.23;8.80;;;33.60;82.00;;;;;;5016819;28;20206;-82
2023/09/08 07:45:14;;;;;;;11.37;8.87;;;34.10;78.70;;;;;;5018264;28;20271;-86
2023/09/08 07:47:40;;;;;;;10.17;7.83;;;34.60;77.70;;;;;;5016823;28;20253;-82
2023/09/08 07:50:25;;;;;;;10.47;8.00;;;36.10;75.40;;;;;;5021757;28;20216;-81
2023/09/08 07:52:52;;;;;;;9.83;8.83;;;38.30;63.80;;;;;;5005044;28;20824;-87
2023/09/08 07:55:18;;;;;;;10.10;9.10;;;38.80;61.40;;;;;;5029936;28;20547;-86
2023/09/08 07:57:45;;;;;;;10.00;9.20;;;38.90;56.30;;;;;;5017314;28;20430;-84
2023/09/08 08:00:12;;;;;;;10.73;9.83;;;38.10;55.90;;;;;;5011756;28;20463;-86
2023/09/08 08:03:05;;;;;;;9.20;8.37;;;37.40;57.30;;;;;;5020208;28;21835;-81
2023/09/08 08:05:31;;;;;;;12.50;8.60;;;36.20;57.70;;;;;;5007764;28;20466;-81
2023/09/08 08:07:57;;;;;;;8.50;7.80;;;35.50;59.60;;;;;;5011981;28;20440;-80
2023/09/08 08:10:22;;;;;;;10.53;8.00;;;34.90;59.70;;;;;;5008238;28;20197;-82
2023/09/08 08:12:48;;;;;;;9.50;7.90;;;34.40;62.80;;;;;;5016826;28;20184;-79
2023/09/08 08:15:14;;;;;;;11.10;7.90;;;33.90;63.60;;;;;;5020032;28;20224;-81
2023/09/08 08:17:40;;;;;;;9.30;7.90;;;33.90;63.20;;;;;;5015310;28;20191;-81
2023/09/08 08:20:08;;;;;;;11.53;8.47;;;33.50;63.90;;;;;;5019652;28;20203;-83
2023/09/08 08:22:34;;;;;;;9.60;7.80;;;33.70;65.50;;;;;;5008670;28;20520;-86
2023/09/08 08:24:59;;;;;;;7.77;6.93;;;34.10;65.10;;;;;;5011562;28;20929;-86
2023/09/08 08:27:25;;;;;;;10.90;6.90;;;34.10;63.40;;;;;;5005577;28;20240;-85
2023/09/08 08:29:51;;;;;;;8.27;7.37;;;34.70;64.40;;;;;;5004128;28;20282;-80
2023/09/08 08:32:17;;;;;;;9.73;8.73;;;35.10;62.00;;;;;;5002501;28;20706;-82
2023/09/08 08:34:44;;;;;;;10.67;8.80;;;35.50;60.30;;;;;;5003262;28;20210;-84
2023/09/08 08:37:11;;;;;;;9.23;8.33;;;35.70;59.40;;;;;;5017229;28;20491;-83
2023/09/08 08:39:37;;;;;;;11.13;8.80;;;36.20;59.90;;;;;;4994729;28;20450;-84
2023/09/08 08:42:09;;;;;;;11.83;8.97;;;36.40;58.30;;;;;;4994827;28;20440;-85
2023/09/08 08:44:37;;;;;;;10.97;9.10;;;36.10;58.80;;;;;;5001502;28;20480;-85
2023/09/08 08:47:04;;;;;;;9.30;8.40;;;35.90;58.40;;;;;;5002616;28;20503;-85
2023/09/08 08:49:32;;;;;;;10.00;9.17;;;35.70;59.10;;;;;;5002800;28;20451;-85
2023/09/08 08:51:58;;;;;;;10.07;9.07;;;35.60;57.70;;;;;;4996750;28;20444;-85
2023/09/08 08:54:24;;;;;;;14.30;8.87;;;35.90;59.00;;;;;;4999498;28;20480;-89
2023/09/08 08:56:51;;;;;;;13.10;10.10;;;36.00;58.60;;;;;;4996089;28;20486;-85
2023/09/08 08:59:16;;;;;;;12.20;9.23;;;36.00;58.40;;;;;;5006872;28;20461;-84
2023/09/08 09:01:43;;;;;;;10.10;9.10;;;36.50;57.90;;;;;;4999629;28;20447;-85
2023/09/08 09:04:09;;;;;;;15.23;9.10;;;37.10;57.00;;;;;;5002588;28;20331;-84
2023/09/08 09:06:35;;;;;;;11.00;10.00;;;37.30;55.90;;;;;;5015937;28;20468;-83
2023/09/08 09:09:01;;;;;;;10.70;9.83;;;37.30;55.40;;;;;;4999992;28;20483;-87
2023/09/08 09:11:27;;;;;;;10.60;9.80;;;37.90;55.00;;;;;;4997124;28;20288;-86
2023/09/08 09:13:53;;;;;;;10.67;9.67;;;37.50;54.60;;;;;;4996735;28;21520;-82
2023/09/08 09:16:20;;;;;;;11.30;10.50;;;37.60;56.10;;;;;;5015269;28;20253;-83
2023/09/08 09:18:59;;;;;;;12.57;9.90;;;38.10;54.70;;;;;;5013121;28;20270;-79
2023/09/08 09:21:47;;;;;;;15.13;10.80;;;37.90;54.00;;;;;;4999478;28;21091;-84
2023/09/08 09:24:33;;;;;;;11.43;10.53;;;37.30;54.10;;;;;;4999716;28;20560;-88
2023/09/08 09:27:04;;;;;;;11.13;9.97;;;37.40;54.20;;;;;;4999987;28;20543;-87
2023/09/08 09:29:31;;;;;;;11.73;10.73;;;37.90;54.90;;;;;;4992718;28;20453;-89
2023/09/08 09:32:02;;;;;;;11.93;10.80;;;38.80;53.30;;;;;;5003712;28;20536;-82
2023/09/08 09:34:28;;;;;;;12.30;11.40;;;39.20;53.60;;;;;;4988701;28;20535;-86
2023/09/08 09:36:53;;;;;;;12.47;11.47;;;39.70;51.60;;;;;;4994465;28;21543;-87
2023/09/08 09:39:24;;;;;;;15.53;12.20;;;39.40;51.50;;;;;;4990968;28;20198;-84
2023/09/08 09:41:54;;;;;;;13.97;12.77;;;39.10;51.40;;;;;;5013588;28;20213;-84
2023/09/08 09:44:20;;;;;;;14.23;13.03;;;39.10;51.90;;;;;;4993841;28;20992;-90
2023/09/08 09:46:46;;;;;;;14.53;13.43;;;38.90;51.40;;;;;;4995697;28;20445;-83
2023/09/08 09:49:13;;;;;;;13.17;12.27;;;38.20;52.10;;;;;;5012698;28;20453;-84
2023/09/08 09:51:47;;;;;;;12.90;11.70;;;38.00;52.20;;;;;;5014261;28;20433;-83
2023/09/08 09:54:14;;;;;;;15.07;13.67;;;38.20;52.70;;;;;;4998758;28;20526;-86
2023/09/08 09:56:41;;;;;;;14.07;13.00;;;37.40;53.00;;;;;;4993122;28;20566;-83
2023/09/08 09:59:11;;;;;;;13.30;12.30;;;37.00;53.10;;;;;;4994158;28;20457;-88
2023/09/08 10:01:38;;;;;;;13.73;12.70;;;35.90;54.50;;;;;;5015053;28;20453;-88
2023/09/08 10:04:04;;;;;;;13.73;12.53;;;35.70;55.40;;;;;;4989276;28;20515;-86
2023/09/08 10:06:35;;;;;;;14.33;13.03;;;35.10;56.20;;;;;;4995069;28;20470;-84
2023/09/08 10:09:04;;;;;;;13.10;12.00;;;35.10;56.70;;;;;;4996840;28;20670;-88
2023/09/08 10:11:45;;;;;;;14.50;10.80;;;34.30;57.90;;;;;;4990272;28;20447;-84
2023/09/08 10:14:12;;;;;;;11.50;10.30;;;32.70;58.20;;;;;;4992456;28;20536;-84
2023/09/08 10:16:40;;;;;;;10.00;8.37;;;31.70;62.40;;;;;;4994772;28;20493;-84
2023/09/08 10:19:09;;;;;;;11.23;8.30;;;30.50;64.90;;;;;;4992709;28;20463;-86
2023/09/08 10:21:41;;;;;;;9.50;7.87;;;29.70;67.90;;;;;;4998101;28;20478;-82
2023/09/08 10:24:16;;;;;;;9.20;8.30;;;29.40;70.30;;;;;;5013181;28;20502;-86
2023/09/08 10:26:51;;;;;;;9.10;7.30;;;28.90;73.00;;;;;;5027621;28;20448;-84
2023/09/08 10:29:18;;;;;;;9.53;8.53;;;27.90;73.80;;;;;;4994225;28;20479;-86
2023/09/08 10:31:44;;;;;;;8.87;7.97;;;28.10;78.10;;;;;;4999839;28;20862;-83
2023/09/08 10:34:11;;;;;;;14.40;7.70;;;28.10;76.60;;;;;;5006165;28;20513;-83
2023/09/08 10:36:38;;;;;;;9.20;8.00;;;28.10;77.80;;;;;;5004122;28;20451;-80
2023/09/08 10:39:35;;;;;;;10.23;7.90;;;28.10;80.70;;;;;;5000079;28;20456;-84
2023/09/08 10:42:18;;;;;;;7.53;6.83;;;28.20;79.40;;;;;;4999280;28;20470;-82
2023/09/08 10:44:44;;;;;;;10.80;7.40;;;28.30;79.10;;;;;;4996337;28;20466;-85
2023/09/08 10:47:10;;;;;;;9.50;7.37;;;28.10;79.60;;;;;;4989423;28;20442;-88
2023/09/08 10:49:36;;;;;;;12.20;7.70;;;28.10;81.40;;;;;;4990853;28;20465;-82
2023/09/08 10:52:09;;;;;;;8.63;7.20;;;28.00;82.30;;;;;;4987828;28;20275;-84
2023/09/08 10:54:47;;;;;;;7.73;6.93;;;28.10;85.00;;;;;;4992938;28;20502;-81
2023/09/08 10:57:14;;;;;;;8.30;6.97;;;28.50;82.10;;;;;;4983567;28;20455;-82
2023/09/08 10:59:53;;;;;;;8.27;7.40;;;28.60;81.20;;;;;;4983465;28;20433;-82
2023/09/08 11:02:37;;;;;;;11.70;7.20;;;28.50;79.80;;;;;;5007196;28;20454;-82
2023/09/08 11:05:06;;;;;;;8.17;7.43;;;28.30;80.10;;;;;;5010552;28;20574;-85
2023/09/08 11:07:32;;;;;;;7.83;6.87;;;28.00;84.20;;;;;;4991529;28;20521;-80
2023/09/08 11:09:59;;;;;;;9.60;7.50;;;28.30;82.40;;;;;;5010864;28;20459;-82
2023/09/08 11:12:27;;;;;;;8.83;7.30;;;28.50;82.50;;;;;;4996853;28;20491;-88
2023/09/08 11:14:52;;;;;;;9.70;7.70;;;28.60;83.90;;;;;;4993127;28;20561;-83
2023/09/08 11:17:18;;;;;;;6.70;6.00;;;28.40;83.40;;;;;;4997120;28;20590;-86
2023/09/08 11:19:49;;;;;;;9.83;8.10;;;28.10;85.10;;;;;;4998526;28;20309;-85
2023/09/08 11:22:17;;;;;;;8.73;7.40;;;28.30;85.90;;;;;;4993283;28;20577;-87
2023/09/08 11:24:44;;;;;;;9.47;6.80;;;28.00;90.00;;;;;;4994406;28;20493;-81
2023/09/08 11:27:11;;;;;;;9.90;6.90;;;28.00;87.80;;;;;;5000061;28;20446;-86
2023/09/08 11:29:40;;;;;;;7.53;6.60;;;27.70;90.20;;;;;;4996895;28;20515;-80
2023/09/08 11:32:07;;;;;;;10.63;7.00;;;27.70;90.00;;;;;;5007368;28;20442;-81
2023/09/08 11:34:33;;;;;;;8.53;6.60;;;28.10;88.40;;;;;;5004979;28;20527;-80
2023/09/08 11:36:59;;;;;;;8.67;6.40;;;28.40;85.00;;;;;;4995805;28;21091;-84
2023/09/08 11:39:25;;;;;;;9.50;7.60;;;28.50;85.20;;;;;;5012977;28;20459;-85
2023/09/08 11:41:51;;;;;;;14.73;6.77;;;28.70;85.20;;;;;;4998702;28;20607;-80
2023/09/08 11:44:18;;;;;;;11.70;7.60;;;28.70;84.80;;;;;;4997069;28;21093;-83
2023/09/08 11:46:44;;;;;;;9.37;6.97;;;28.90;89.40;;;;;;4997754;28;20451;-82
2023/09/08 11:49:09;;;;;;;7.77;6.17;;;29.00;86.10;;;;;;4995966;28;21644;-86
2023/09/08 11:51:36;;;;;;;8.03;6.33;;;29.10;83.50;;;;;;4998418;28;20197;-82
2023/09/08 11:54:02;;;;;;;7.83;6.87;;;29.20;82.50;;;;;;5001522;28;20185;-83
2023/09/08 11:56:28;;;;;;;7.40;6.60;;;29.20;82.10;;;;;;5001357;28;20521;-81
2023/09/08 11:58:54;;;;;;;9.47;6.87;;;29.10;83.20;;;;;;5008343;28;20286;-84
2023/09/08 12:01:20;;;;;;;8.43;6.73;;;29.20;83.70;;;;;;4999297;28;20190;-82
2023/09/08 12:03:57;;;;;;;7.70;6.83;;;29.40;82.80;;;;;;5000569;28;20468;-83
2023/09/08 12:06:27;;;;;;;10.33;7.73;;;29.40;81.60;;;;;;4997620;28;20208;-84
2023/09/08 12:08:53;;;;;;;10.70;8.20;;;29.20;85.10;;;;;;5002836;28;21271;-80
2023/09/08 12:11:19;;;;;;;8.27;6.50;;;28.70;85.80;;;;;;4997807;28;20453;-82
2023/09/08 12:13:45;;;;;;;9.80;7.17;;;28.70;85.60;;;;;;4993842;28;20452;-84
2023/09/08 12:16:22;;;;;;;8.03;7.17;;;28.80;85.00;;;;;;5004247;28;20282;-87
2023/09/08 12:18:49;;;;;;;8.53;6.73;;;28.80;87.50;;;;;;5003335;28;20187;-84
2023/09/08 12:21:15;;;;;;;11.33;6.60;;;28.80;85.50;;;;;;5000004;28;20459;-84
2023/09/08 12:23:49;;;;;;;6.87;6.27;;;28.90;85.80;;;;;;5002391;28;20492;-82
2023/09/08 12:26:16;;;;;;;8.57;7.40;;;29.30;84.70;;;;;;5005961;28;20336;-81
2023/09/08 12:28:42;;;;;;;7.20;6.47;;;29.50;83.00;;;;;;5000769;28;20441;-79
2023/09/08 12:31:08;;;;;;;6.23;5.73;;;29.60;81.70;;;;;;4997736;28;20454;-85
2023/09/08 12:33:35;;;;;;;9.00;7.27;;;29.60;82.10;;;;;;5006222;28;20460;-84
2023/09/08 12:36:16;;;;;;;8.80;6.70;;;29.80;81.90;;;;;;5003965;28;20522;-77
2023/09/08 12:38:47;;;;;;;7.90;6.50;;;29.90;81.40;;;;;;5010138;28;20518;-79